Time;durP1;ratioP1;P1;durP2;ratioP2;P2;SDS_P1;SDS_P2;PMS_P1;PMS_P2;Temp;Humidity;BMP_temperature;BMP_pressure;BME280_temperature;BME280_humidity;BME280_pressure;Samples;Min_cycle;Max_cycle;Signal;HPM_P1;HPM_P2
2023/10/25 00:00:30;;;;;;;4.00;3.70;;;;;;;9.59;100.00;99184.16;5043767;28;21939;-76
2023/10/25 00:02:55;;;;;;;4.70;3.57;;;;;;;9.60;100.00;99184.13;5043802;28;20809;-77
2023/10/25 00:05:21;;;;;;;3.83;3.50;;;;;;;9.62;100.00;99181.47;5042768;28;20232;-78
2023/10/25 00:07:47;;;;;;;3.50;3.23;;;;;;;9.63;100.00;99180.59;5042458;28;20209;-77
2023/10/25 00:10:12;;;;;;;3.60;3.30;;;;;;;9.63;100.00;99183.19;5043725;28;20225;-78
2023/10/25 00:12:37;;;;;;;3.90;3.60;;;;;;;9.64;100.00;99173.72;5041655;28;20218;-77
2023/10/25 00:15:04;;;;;;;3.70;3.40;;;;;;;9.63;100.00;99174.59;5048286;28;20182;-78
2023/10/25 00:17:29;;;;;;;3.33;3.03;;;;;;;9.59;100.00;99179.00;5052238;28;20242;-78
2023/10/25 00:19:55;;;;;;;3.63;3.33;;;;;;;9.57;100.00;99173.84;5056636;28;21133;-77
2023/10/25 00:22:20;;;;;;;3.93;3.30;;;;;;;9.57;100.00;99180.75;5045981;28;20194;-77
2023/10/25 00:24:45;;;;;;;3.23;3.03;;;;;;;9.55;100.00;99175.59;5045701;28;20334;-78
2023/10/25 00:27:10;;;;;;;3.07;2.87;;;;;;;9.56;100.00;99171.31;5044901;28;20648;-77
2023/10/25 00:29:36;;;;;;;3.40;3.20;;;;;;;9.56;100.00;99174.72;5040283;28;20214;-77
2023/10/25 00:32:01;;;;;;;3.30;3.10;;;;;;;9.57;100.00;99166.09;5041892;28;20210;-76
2023/10/25 00:34:26;;;;;;;3.60;3.30;;;;;;;9.57;100.00;99173.00;5044610;28;20248;-77
2023/10/25 00:36:52;;;;;;;3.77;3.43;;;;;;;9.57;100.00;99173.00;5043582;28;20187;-77
2023/10/25 00:39:17;;;;;;;3.20;3.00;;;;;;;9.57;100.00;99173.84;5045936;28;20587;-78
2023/10/25 00:41:42;;;;;;;3.87;3.57;;;;;;;9.59;100.00;99181.56;5042694;28;20273;-77
2023/10/25 00:44:08;;;;;;;3.80;3.50;;;;;;;9.60;100.00;99183.28;5044288;28;20700;-77
2023/10/25 00:46:33;;;;;;;4.47;4.00;;;;;;;9.61;100.00;99184.94;5045438;28;20737;-76
2023/10/25 00:49:00;;;;;;;4.17;3.77;;;;;;;9.61;100.00;99167.72;5044799;28;20218;-77
2023/10/25 00:51:26;;;;;;;4.33;4.03;;;;;;;9.59;100.00;99177.25;5042350;28;20190;-76
2023/10/25 00:53:54;;;;;;;4.10;3.77;;;;;;;9.56;100.00;99166.97;5045539;28;20190;-77
2023/10/25 00:56:23;;;;;;;3.83;3.53;;;;;;;9.52;100.00;99161.91;5041206;28;20233;-77
2023/10/25 00:58:50;;;;;;;4.33;4.03;;;;;;;9.46;100.00;99165.50;5041994;28;20203;-77
2023/10/25 01:01:17;;;;;;;4.47;4.13;;;;;;;9.44;100.00;99162.97;5042124;28;20186;-76
2023/10/25 01:03:42;;;;;;;4.80;4.00;;;;;;;9.42;100.00;99172.47;5043646;28;20608;-76
2023/10/25 01:06:08;;;;;;;4.30;4.00;;;;;;;9.41;100.00;99178.50;5044047;28;20214;-76
2023/10/25 01:08:34;;;;;;;4.23;3.93;;;;;;;9.39;100.00;99188.03;5042316;28;20222;-77
2023/10/25 01:10:59;;;;;;;5.00;4.17;;;;;;;9.37;100.00;99183.78;5042675;28;20663;-77
2023/10/25 01:13:25;;;;;;;4.10;3.80;;;;;;;9.34;100.00;99192.44;5036974;28;20180;-77
2023/10/25 01:15:50;;;;;;;4.33;4.03;;;;;;;9.32;100.00;99180.44;5040214;28;20296;-77
2023/10/25 01:18:16;;;;;;;4.10;3.80;;;;;;;9.29;100.00;99189.94;5044311;28;20588;-79
2023/10/25 01:20:42;;;;;;;3.90;3.60;;;;;;;9.29;100.00;99182.22;5043183;28;20250;-77
2023/10/25 01:23:08;;;;;;;4.47;4.07;;;;;;;9.29;100.00;99181.38;5042853;28;20221;-76
2023/10/25 01:25:33;;;;;;;7.87;5.47;;;;;;;9.27;100.00;99177.97;5046970;28;20914;-77
2023/10/25 01:27:59;;;;;;;5.80;4.83;;;;;;;9.25;100.00;99171.97;5045067;28;20225;-77
2023/10/25 01:30:25;;;;;;;4.43;4.13;;;;;;;9.20;100.00;99169.50;5042915;28;20226;-76
2023/10/25 01:32:51;;;;;;;3.70;3.40;;;;;;;9.14;100.00;99172.22;5042598;28;20190;-78
2023/10/25 01:35:16;;;;;;;3.73;3.43;;;;;;;9.11;100.00;99174.84;5036861;28;20216;-77
2023/10/25 01:37:41;;;;;;;4.03;3.63;;;;;;;9.08;100.00;99178.34;5043017;28;20244;-76
2023/10/25 01:40:07;;;;;;;3.50;2.80;;;;;;;9.09;100.00;99176.59;5043987;28;20192;-76
2023/10/25 01:42:33;;;;;;;3.40;3.10;;;;;;;9.09;100.00;99166.28;5043387;28;20182;-76
2023/10/25 01:45:01;;;;;;;4.47;3.70;;;;;;;9.12;100.00;99161.94;5043620;28;20237;-77
2023/10/25 01:47:26;;;;;;;4.13;3.47;;;;;;;9.14;100.00;99170.50;5042596;28;20204;-78
2023/10/25 01:49:52;;;;;;;10.23;4.00;;;;;;;9.18;100.00;99162.66;5042886;28;20207;-77
2023/10/25 01:52:17;;;;;;;10.53;4.13;;;;;;;9.18;100.00;99170.41;5045772;28;20186;-77
2023/10/25 01:54:45;;;;;;;5.77;4.13;;;;;;;9.20;100.00;99163.47;5044261;28;20190;-76
2023/10/25 01:57:10;;;;;;;5.33;3.73;;;;;;;9.19;100.00;99157.47;5045163;28;20213;-77
2023/10/25 01:59:35;;;;;;;5.87;3.53;;;;;;;9.19;100.00;99159.19;5044993;28;21926;-77
2023/10/25 02:02:01;;;;;;;5.13;4.10;;;;;;;9.19;100.00;99152.31;5043306;28;20228;-77
2023/10/25 02:04:26;;;;;;;4.47;3.57;;;;;;;9.17;100.00;99143.75;5047227;28;20183;-78
2023/10/25 02:06:54;;;;;;;5.07;4.37;;;;;;;9.19;100.00;99141.13;5044608;28;20186;-78
2023/10/25 02:09:20;;;;;;;6.07;3.77;;;;;;;9.20;100.00;99127.34;5039079;28;20264;-77
2023/10/25 02:11:45;;;;;;;6.07;3.90;;;;;;;9.21;100.00;99129.03;5041473;28;20186;-76
2023/10/25 02:14:10;;;;;;;6.73;5.83;;;;;;;9.22;100.00;99123.00;5046891;28;20194;-79
2023/10/25 02:16:36;;;;;;;5.63;5.03;;;;;;;9.23;100.00;99124.69;5053848;28;20651;-77
2023/10/25 02:19:01;;;;;;;5.13;4.70;;;;;;;9.24;100.00;99121.22;5041775;28;21047;-78
2023/10/25 02:21:26;;;;;;;4.67;4.37;;;;;;;9.24;100.00;99113.50;5042604;28;20187;-77
2023/10/25 02:23:53;;;;;;;5.13;4.53;;;;;;;9.24;100.00;99113.50;5042225;28;20178;-77
2023/10/25 02:26:18;;;;;;;4.83;4.33;;;;;;;9.24;100.00;99108.31;5045528;28;20186;-77
2023/10/25 02:28:44;;;;;;;6.73;4.47;;;;;;;9.26;100.00;99103.97;5043188;28;20213;-78
2023/10/25 02:31:09;;;;;;;5.10;4.70;;;;;;;9.26;100.00;99115.16;5039605;28;21111;-77
2023/10/25 02:33:35;;;;;;;4.10;3.80;;;;;;;9.27;100.00;99111.69;5041246;28;20241;-77
2023/10/25 02:36:00;;;;;;;4.47;4.17;;;;;;;9.29;100.00;99109.09;5042344;28;20950;-77
2023/10/25 02:38:25;;;;;;;5.23;4.73;;;;;;;9.31;100.00;99107.28;5042320;28;20854;-76
2023/10/25 02:40:50;;;;;;;5.13;4.67;;;;;;;9.31;100.00;99099.53;5040565;28;20256;-77
2023/10/25 02:43:16;;;;;;;4.93;4.53;;;;;;;9.31;100.00;99102.13;5041058;28;20606;-76
2023/10/25 02:45:41;;;;;;;6.13;5.63;;;;;;;9.29;100.00;99109.91;5042580;28;20726;-76
2023/10/25 02:48:12;;;;;;;5.83;5.23;;;;;;;9.26;100.00;99111.72;5042283;28;20683;-76
2023/10/25 02:50:38;;;;;;;5.13;4.73;;;;;;;9.23;100.00;99110.03;5043826;28;20690;-77
2023/10/25 02:53:03;;;;;;;5.00;4.60;;;;;;;9.21;100.00;99106.66;5037098;28;20183;-76
2023/10/25 02:55:28;;;;;;;8.83;5.40;;;;;;;9.21;100.00;99108.38;5043927;28;20589;-76
2023/10/25 02:57:54;;;;;;;6.13;5.33;;;;;;;9.19;100.00;99105.84;5042361;28;20210;-77
2023/10/25 03:00:19;;;;;;;7.40;6.70;;;;;;;9.17;100.00;99101.59;5043482;28;20496;-76
2023/10/25 03:02:45;;;;;;;6.33;5.60;;;;;;;9.13;100.00;99100.81;5040363;28;20627;-76
2023/10/25 03:05:11;;;;;;;6.33;5.20;;;;;;;9.13;100.00;99095.66;5041950;28;20625;-78
2023/10/25 03:07:36;;;;;;;5.50;5.00;;;;;;;9.14;100.00;99092.19;5039702;28;20214;-76
2023/10/25 03:10:02;;;;;;;4.93;4.43;;;;;;;9.14;100.00;99087.91;5042099;28;20305;-77
2023/10/25 03:12:27;;;;;;;4.63;4.20;;;;;;;9.17;100.00;99081.81;5039142;28;20193;-77
2023/10/25 03:14:52;;;;;;;6.23;4.50;;;;;;;9.19;100.00;99086.91;5041661;28;20217;-76
2023/10/25 03:17:18;;;;;;;4.00;3.63;;;;;;;9.19;100.00;99071.44;5038276;28;20175;-77
2023/10/25 03:19:43;;;;;;;4.53;4.13;;;;;;;9.20;100.00;99076.56;5037110;28;20183;-77
2023/10/25 03:22:08;;;;;;;3.93;3.63;;;;;;;9.19;100.00;99071.44;5041492;28;20416;-77
2023/10/25 03:24:34;;;;;;;4.10;3.80;;;;;;;9.21;100.00;99075.69;5042374;28;20237;-76
2023/10/25 03:26:59;;;;;;;3.80;3.50;;;;;;;9.24;100.00;99078.19;5041196;28;20203;-77
2023/10/25 03:29:24;;;;;;;3.63;3.30;;;;;;;9.26;100.00;99073.84;5042291;28;20221;-76
2023/10/25 03:31:50;;;;;;;3.60;3.30;;;;;;;9.29;100.00;99070.34;5046070;28;20884;-76
2023/10/25 03:34:18;;;;;;;3.43;3.23;;;;;;;9.29;100.00;99066.03;5043898;28;20190;-76
2023/10/25 03:36:44;;;;;;;3.67;3.37;;;;;;;9.31;100.00;99060.81;5038984;28;20306;-78
2023/10/25 03:39:13;;;;;;;3.33;3.03;;;;;;;9.30;100.00;99059.97;5041857;28;20301;-77
2023/10/25 03:41:40;;;;;;;3.20;2.90;;;;;;;9.31;100.00;99065.97;5038000;28;20351;-77
2023/10/25 03:44:05;;;;;;;2.93;2.73;;;;;;;9.30;100.00;99052.22;5035480;28;20242;-77
2023/10/25 03:46:31;;;;;;;3.23;3.03;;;;;;;9.31;100.00;99042.75;5041306;28;20198;-77
2023/10/25 03:48:56;;;;;;;4.53;4.13;;;;;;;9.29;100.00;99037.63;5042781;28;20210;-77
2023/10/25 03:51:21;;;;;;;3.90;3.60;;;;;;;9.22;100.00;99036.09;5039528;28;20200;-76
2023/10/25 03:53:46;;;;;;;3.70;3.40;;;;;;;9.18;100.00;99034.47;5040428;28;20194;-76
2023/10/25 03:56:12;;;;;;;3.17;2.87;;;;;;;9.17;100.00;99032.75;5039773;28;20214;-77
2023/10/25 03:58:37;;;;;;;3.60;3.30;;;;;;;9.14;100.00;99032.81;5041422;28;20207;-75
2023/10/25 04:01:06;;;;;;;3.23;3.03;;;;;;;9.11;100.00;99031.16;5056245;28;20276;-77
2023/10/25 04:03:32;;;;;;;3.60;3.07;;;;;;;9.06;100.00;99027.00;5041411;28;20201;-77
2023/10/25 04:05:57;;;;;;;3.60;2.83;;;;;;;9.02;100.00;99027.94;5039716;28;20190;-77
2023/10/25 04:08:23;;;;;;;3.20;3.00;;;;;;;8.97;100.00;99023.72;5035422;28;20207;-78
2023/10/25 04:10:54;;;;;;;3.30;3.10;;;;;;;8.93;100.00;99023.84;5049489;28;20218;-78
2023/10/25 04:13:21;;;;;;;3.80;3.50;;;;;;;8.91;100.00;99020.44;5045441;28;20209;-76
2023/10/25 04:16:00;;;;;;;3.77;3.47;;;;;;;8.84;100.00;99018.03;5040487;28;20182;-76
2023/10/25 04:18:27;;;;;;;3.63;3.33;;;;;;;8.78;100.00;99009.53;5038570;28;20216;-77
2023/10/25 04:20:53;;;;;;;3.50;3.20;;;;;;;8.73;100.00;99012.22;5040156;28;20189;-78
2023/10/25 04:23:19;;;;;;;3.70;3.40;;;;;;;8.68;100.00;98996.84;5039711;28;20197;-77
2023/10/25 04:25:45;;;;;;;3.30;3.07;;;;;;;8.65;100.00;99001.25;5038289;28;20238;-76
2023/10/25 04:28:10;;;;;;;3.37;3.07;;;;;;;8.59;100.00;98999.66;5043246;28;20227;-78
2023/10/25 04:30:36;;;;;;;2.87;2.67;;;;;;;8.53;100.00;98992.03;5046587;28;20228;-78
2023/10/25 04:33:04;;;;;;;3.40;3.10;;;;;;;8.47;100.00;98990.41;5042252;28;20194;-78
2023/10/25 04:35:29;;;;;;;3.37;3.17;;;;;;;8.43;100.00;98982.78;5043703;28;20741;-77
2023/10/25 04:37:55;;;;;;;3.73;3.40;;;;;;;8.39;100.00;98988.00;5043801;28;20205;-77
2023/10/25 04:40:21;;;;;;;2.90;2.70;;;;;;;8.34;100.00;98989.81;5044860;28;20195;-77
2023/10/25 04:42:49;;;;;;;2.80;2.60;;;;;;;8.31;100.00;98991.59;5042958;28;20189;-78
2023/10/25 04:45:15;;;;;;;4.07;2.50;;;;;;;8.27;100.00;98979.66;5044129;28;20194;-76
2023/10/25 04:47:41;;;;;;;2.93;2.70;;;;;;;8.26;100.00;98977.97;5046763;28;20217;-78
2023/10/25 04:50:06;;;;;;;3.20;3.00;;;;;;;8.23;100.00;98973.72;5044299;28;20205;-78
2023/10/25 04:52:31;;;;;;;4.40;4.00;;;;;;;8.24;100.00;98962.53;5043850;28;20651;-78
2023/10/25 04:54:57;;;;;;;5.70;5.13;;;;;;;8.27;100.00;98953.88;5041431;28;20194;-77
2023/10/25 04:57:22;;;;;;;5.90;5.30;;;;;;;8.29;100.00;98952.13;5042640;28;20190;-78
2023/10/25 04:59:48;;;;;;;7.23;5.90;;;;;;;8.30;100.00;98948.66;5043812;28;20553;-77
2023/10/25 05:02:13;;;;;;;6.03;5.53;;;;;;;8.27;100.00;98947.00;5041323;28;20291;-77
2023/10/25 05:04:39;;;;;;;5.33;4.93;;;;;;;8.29;100.00;98945.25;5041791;28;20211;-77
2023/10/25 05:07:04;;;;;;;5.53;5.03;;;;;;;8.29;100.00;98940.09;5045177;28;20200;-77
2023/10/25 05:09:32;;;;;;;5.17;4.77;;;;;;;8.31;100.00;98940.91;5041602;28;20227;-77
2023/10/25 05:12:02;;;;;;;4.97;4.57;;;;;;;8.35;100.00;98939.13;5037529;28;20188;-76
2023/10/25 05:14:28;;;;;;;4.30;3.90;;;;;;;8.38;100.00;98936.47;5033360;28;20272;-76
2023/10/25 05:16:53;;;;;;;4.70;4.33;;;;;;;8.40;100.00;98939.84;5040002;28;20190;-77
2023/10/25 05:19:19;;;;;;;4.60;4.30;;;;;;;8.44;100.00;98932.91;5043377;28;20237;-76
2023/10/25 05:21:49;;;;;;;4.03;3.73;;;;;;;8.47;100.00;98927.69;5043925;28;20611;-78
2023/10/25 05:24:15;;;;;;;4.60;4.30;;;;;;;8.47;100.00;98922.53;5040677;28;20277;-77
2023/10/25 05:26:41;;;;;;;4.60;4.30;;;;;;;8.48;100.00;98924.25;5056722;28;20204;-79
2023/10/25 05:29:07;;;;;;;5.30;4.80;;;;;;;8.50;100.00;98925.06;5035108;28;20217;-78
2023/10/25 05:31:34;;;;;;;5.23;4.83;;;;;;;8.54;100.00;98914.66;5036448;28;20191;-76
2023/10/25 05:34:00;;;;;;;4.90;4.50;;;;;;;8.53;100.00;98918.13;5039021;28;20240;-76
2023/10/25 05:36:26;;;;;;;4.60;4.20;;;;;;;8.51;100.00;98906.13;5040839;28;20183;-77
2023/10/25 05:38:51;;;;;;;4.50;4.20;;;;;;;8.49;100.00;98905.31;5036102;28;20695;-77
2023/10/25 05:41:22;;;;;;;5.70;5.30;;;;;;;8.49;100.00;98898.44;5042993;28;20190;-77
2023/10/25 05:44:05;;;;;;;6.13;5.73;;;;;;;8.47;100.00;98895.00;5042324;28;20198;-77
2023/10/25 05:46:31;;;;;;;6.20;5.80;;;;;;;8.45;100.00;98898.53;5041158;28;20202;-77
2023/10/25 05:48:56;;;;;;;4.57;4.27;;;;;;;8.40;100.00;98893.44;5043177;28;20670;-78
2023/10/25 05:51:22;;;;;;;4.93;4.63;;;;;;;8.39;100.00;98896.94;5043432;28;20196;-78
2023/10/25 05:53:48;;;;;;;4.77;4.47;;;;;;;8.41;100.00;98892.56;5042688;28;20184;-77
2023/10/25 05:56:14;;;;;;;4.63;4.33;;;;;;;8.40;100.00;98883.13;5044308;28;20202;-77
2023/10/25 05:58:39;;;;;;;5.17;4.73;;;;;;;8.41;100.00;98882.25;5044590;28;20217;-77
2023/10/25 06:01:09;;;;;;;4.67;4.27;;;;;;;8.39;100.00;98868.56;5050534;28;20193;-78
2023/10/25 06:03:35;;;;;;;4.60;4.30;;;;;;;8.37;100.00;98868.59;5045273;28;20189;-77
2023/10/25 06:06:01;;;;;;;4.30;4.00;;;;;;;8.37;100.00;98872.91;5057170;28;20192;-78
2023/10/25 06:08:27;;;;;;;3.70;3.33;;;;;;;8.39;100.00;98855.69;5064039;28;20210;-76
2023/10/25 06:10:54;;;;;;;3.50;3.30;;;;;;;8.41;100.00;98860.78;5043106;28;20569;-77
2023/10/25 06:13:19;;;;;;;3.20;3.00;;;;;;;8.41;100.00;98853.88;5039469;28;20200;-77
2023/10/25 06:15:45;;;;;;;3.13;2.70;;;;;;;8.41;100.00;98853.88;5041756;28;20261;-77
2023/10/25 06:18:11;;;;;;;3.07;2.87;;;;;;;8.45;100.00;98850.38;5042328;28;20222;-78
2023/10/25 06:20:36;;;;;;;2.67;2.23;;;;;;;8.46;100.00;98846.06;5042713;28;20666;-77
2023/10/25 06:23:02;;;;;;;2.60;2.40;;;;;;;8.49;100.00;98844.28;5039138;28;20200;-78
2023/10/25 06:25:29;;;;;;;2.80;2.60;;;;;;;8.52;100.00;98845.94;5042463;28;20735;-78
2023/10/25 06:27:57;;;;;;;2.77;2.57;;;;;;;8.53;100.00;98837.31;5042306;28;20922;-76
2023/10/25 06:30:23;;;;;;;2.23;2.10;;;;;;;8.57;100.00;98840.66;5041980;28;20651;-77
2023/10/25 06:32:48;;;;;;;2.37;2.23;;;;;;;8.63;100.00;98843.94;5042345;28;20269;-78
2023/10/25 06:35:13;;;;;;;2.90;2.60;;;;;;;8.69;100.00;98840.41;5040626;28;20193;-76
2023/10/25 06:37:39;;;;;;;2.83;2.63;;;;;;;8.73;100.00;98839.41;5042894;28;20304;-77
2023/10/25 06:40:05;;;;;;;3.33;3.00;;;;;;;8.78;100.00;98840.16;5041842;28;20184;-76
2023/10/25 06:42:30;;;;;;;4.80;3.10;;;;;;;8.85;100.00;98836.53;5040054;28;20221;-78
2023/10/25 06:44:56;;;;;;;3.40;3.10;;;;;;;8.93;100.00;98831.16;5043067;28;20328;-77
2023/10/25 06:47:22;;;;;;;4.37;3.43;;;;;;;9.03;100.00;98830.94;5041539;28;20192;-78
2023/10/25 06:49:47;;;;;;;3.50;3.20;;;;;;;9.11;100.00;98824.69;5038223;28;20202;-78
2023/10/25 06:52:13;;;;;;;4.23;3.50;;;;;;;9.19;100.00;98814.16;5040390;28;20194;-77
2023/10/25 06:54:38;;;;;;;4.30;2.77;;;;;;;9.24;100.00;98814.03;5043451;28;20198;-77
2023/10/25 06:57:04;;;;;;;3.43;3.10;;;;;;;9.27;100.00;98812.22;5043156;28;20496;-76
2023/10/25 06:59:30;;;;;;;3.47;3.07;;;;;;;9.32;100.00;98813.84;5040704;28;20678;-77
2023/10/25 07:02:07;;;;;;;3.20;2.90;;;;;;;9.35;100.00;98800.84;5041256;28;20826;-76
2023/10/25 07:04:33;;;;;;;2.83;2.63;;;;;;;9.36;100.00;98802.53;5039350;28;20657;-77
2023/10/25 07:06:59;;;;;;;3.00;2.80;;;;;;;9.36;100.00;98794.78;5041719;28;20186;-76
2023/10/25 07:09:25;;;;;;;2.97;2.77;;;;;;;9.38;100.00;98788.69;5036703;28;20223;-78
2023/10/25 07:11:50;;;;;;;3.03;2.63;;;;;;;9.43;100.00;98784.25;5039117;28;20199;-77
2023/10/25 07:14:16;;;;;;;2.93;2.73;;;;;;;9.46;100.00;98786.72;5041115;28;20269;-78
2023/10/25 07:16:41;;;;;;;2.60;2.40;;;;;;;9.52;100.00;98782.28;5039430;28;20274;-76
2023/10/25 07:19:06;;;;;;;2.70;2.50;;;;;;;9.56;100.00;98779.56;5038253;28;20758;-77
2023/10/25 07:21:32;;;;;;;6.37;4.87;;;;;;;9.59;100.00;98770.91;5038625;28;20231;-76
2023/10/25 07:23:57;;;;;;;4.77;4.27;;;;;;;9.64;100.00;98775.91;5040108;28;20194;-76
2023/10/25 07:26:22;;;;;;;3.67;3.33;;;;;;;9.73;100.00;98765.31;5044300;28;20175;-78
2023/10/25 07:28:47;;;;;;;3.37;3.00;;;;;;;9.82;100.00;98761.59;5039700;28;20213;-78
2023/10/25 07:31:13;;;;;;;3.07;2.87;;;;;;;9.98;100.00;98754.22;5041764;28;20195;-76
2023/10/25 07:33:38;;;;;;;5.60;2.90;;;;;;;10.14;100.00;98763.16;5036179;28;20195;-77
2023/10/25 07:36:04;;;;;;;2.97;2.77;;;;;;;10.34;100.00;98747.03;5041101;28;20248;-77
2023/10/25 07:38:29;;;;;;;3.60;3.30;;;;;;;10.48;100.00;98753.53;5040978;28;20210;-77
2023/10/25 07:40:54;;;;;;;3.23;3.03;;;;;;;10.62;100.00;98763.41;5044258;28;20194;-77
2023/10/25 07:43:20;;;;;;;4.00;2.90;;;;;;;10.67;100.00;98751.16;5038579;28;20188;-76
2023/10/25 07:45:46;;;;;;;2.77;2.57;;;;;;;10.76;100.00;98757.75;5041293;28;20557;-77
2023/10/25 07:48:11;;;;;;;2.93;2.70;;;;;;;10.88;100.00;98744.41;5044735;28;20289;-76
2023/10/25 07:50:37;;;;;;;2.47;2.27;;;;;;;10.91;100.00;98740.84;5041499;28;20582;-77
2023/10/25 07:53:02;;;;;;;3.07;2.87;;;;;;;10.91;100.00;98741.72;5043522;28;20251;-77
2023/10/25 07:55:28;;;;;;;4.70;2.70;;;;;;;10.99;100.00;98736.25;5042776;28;20266;-77
2023/10/25 07:57:54;;;;;;;6.10;3.10;;;;;;;11.17;100.00;98744.25;5036531;28;20218;-78
2023/10/25 08:00:19;;;;;;;5.40;3.10;;;;;;;11.24;100.00;98743.13;5046404;28;20182;-78
2023/10/25 08:02:45;;;;;;;5.03;3.03;;;;;;;11.43;100.00;98733.78;5072278;28;20183;-77
2023/10/25 08:05:10;;;;;;;3.63;2.70;;;;;;;11.58;100.00;98739.28;5050115;28;20258;-76
2023/10/25 08:07:36;;;;;;;4.27;2.53;;;;;;;11.67;100.00;98731.16;5042234;28;20720;-77
2023/10/25 08:10:04;;;;;;;5.80;2.40;;;;;;;11.78;100.00;98727.31;5044121;28;20230;-77
2023/10/25 08:12:31;;;;;;;2.43;2.23;;;;;;;11.92;100.00;98718.97;5044837;28;20183;-76
2023/10/25 08:14:57;;;;;;;2.67;2.07;;;;;;;11.99;100.00;98710.94;5045513;28;20190;-78
2023/10/25 08:17:22;;;;;;;2.10;1.90;;;;;;;12.11;100.00;98713.94;5043318;28;20192;-78
2023/10/25 08:19:47;;;;;;;1.80;1.70;;;;;;;12.15;100.00;98708.56;5045741;28;20675;-77
2023/10/25 08:22:12;;;;;;;2.00;1.80;;;;;;;12.10;100.00;98704.50;5048106;28;20313;-77
2023/10/25 08:24:38;;;;;;;2.93;2.00;;;;;;;12.05;100.00;98709.84;5047133;28;20222;-77
2023/10/25 08:27:03;;;;;;;3.73;2.10;;;;;;;12.00;100.00;98715.22;5046052;28;20222;-76
2023/10/25 08:29:28;;;;;;;3.00;1.73;;;;;;;12.01;100.00;98718.66;5042847;28;20293;-76
2023/10/25 08:31:54;;;;;;;2.27;2.10;;;;;;;12.21;100.00;98712.66;5044766;28;20185;-77
2023/10/25 08:34:19;;;;;;;2.10;1.90;;;;;;;12.39;100.00;98718.00;5044950;28;20277;-77
2023/10/25 08:36:44;;;;;;;1.93;1.73;;;;;;;12.56;100.00;98704.31;5039633;28;20565;-78
2023/10/25 08:39:10;;;;;;;1.67;1.50;;;;;;;12.69;100.00;98705.47;5045253;28;20257;-76
2023/10/25 08:41:36;;;;;;;4.97;2.13;;;;;;;12.78;100.00;98709.41;5043957;28;20194;-77
2023/10/25 08:44:03;;;;;;;2.50;1.90;;;;;;;12.80;100.00;98703.25;5045759;28;20193;-78
2023/10/25 08:46:30;;;;;;;2.43;2.00;;;;;;;12.89;100.00;98708.97;5048687;28;20680;-77
2023/10/25 08:48:56;;;;;;;1.80;1.70;;;;;;;12.95;100.00;98700.88;5043328;28;20240;-75
2023/10/25 08:51:22;;;;;;;2.60;2.00;;;;;;;12.93;100.00;98706.16;5038010;28;20195;-75
2023/10/25 08:53:50;;;;;;;2.87;2.10;;;;;;;12.94;100.00;98700.06;5041316;28;20192;-76
2023/10/25 08:56:15;;;;;;;2.70;2.20;;;;;;;12.96;100.00;98706.03;5044930;28;20251;-76
2023/10/25 08:58:40;;;;;;;3.00;1.80;;;;;;;13.03;100.00;98698.81;5044146;28;20709;-76
2023/10/25 09:01:06;;;;;;;1.90;1.40;;;;;;;13.13;100.00;98695.78;5042787;28;20192;-76
2023/10/25 09:03:31;;;;;;;1.50;1.40;;;;;;;13.19;100.00;98691.16;5043893;28;20185;-76
2023/10/25 09:05:57;;;;;;;1.53;1.37;;;;;;;13.27;100.00;98690.81;5042234;28;20196;-77
2023/10/25 09:08:25;;;;;;;1.27;1.10;;;;;;;13.35;100.00;98687.84;5038790;28;20208;-76
2023/10/25 09:11:00;;;;;;;0.97;0.80;;;;;;;13.40;100.00;98684.16;5040071;28;20225;-76
2023/10/25 09:13:25;;;;;;;1.10;0.90;;;;;;;13.45;100.00;98689.16;5040714;28;20231;-77
2023/10/25 09:15:51;;;;;;;0.80;0.70;;;;;;;13.51;100.00;98675.88;5043688;28;20655;-77
2023/10/25 09:18:16;;;;;;;1.13;0.70;;;;;;;13.48;100.00;98675.19;5038561;28;20218;-75
2023/10/25 09:20:48;;;;;;;1.07;0.83;;;;;;;13.43;100.00;98674.53;5040888;28;20636;-76
2023/10/25 09:23:15;;;;;;;0.93;0.80;;;;;;;13.46;100.00;98670.03;5041424;28;20684;-77
2023/10/25 09:25:40;;;;;;;1.13;0.70;;;;;;;13.53;100.00;98655.84;5042545;28;20182;-76
2023/10/25 09:28:27;;;;;;;0.97;0.70;;;;;;;13.67;100.00;98646.53;5043385;28;20299;-77
2023/10/25 09:31:00;;;;;;;1.20;0.90;;;;;;;13.70;100.00;98651.59;5038343;28;20209;-75
2023/10/25 09:33:30;;;;;;;1.73;1.10;;;;;;;13.78;100.00;98646.03;5040976;28;20252;-77
2023/10/25 09:35:56;;;;;;;2.40;1.13;;;;;;;13.80;100.00;98641.59;5041013;28;20183;-77
2023/10/25 09:38:22;;;;;;;1.07;0.90;;;;;;;13.80;100.00;98633.81;5039990;28;20212;-77
2023/10/25 09:40:48;;;;;;;1.00;0.80;;;;;;;13.79;100.00;98630.34;5042331;28;20181;-77
2023/10/25 09:43:16;;;;;;;2.47;1.00;;;;;;;13.79;100.00;98629.53;5041777;28;20665;-77
2023/10/25 09:45:42;;;;;;;1.20;1.07;;;;;;;13.72;100.00;98623.78;5039764;28;20663;-77
2023/10/25 09:48:13;;;;;;;1.80;1.37;;;;;;;13.64;100.00;98618.09;5043609;28;20318;-77
2023/10/25 09:50:44;;;;;;;1.77;1.10;;;;;;;13.55;100.00;98612.44;5042070;28;20215;-77
2023/10/25 09:53:37;;;;;;;1.20;1.00;;;;;;;13.48;100.00;98608.44;5040780;28;20536;-77
2023/10/25 09:56:05;;;;;;;2.40;1.30;;;;;;;13.41;100.00;98597.50;5064029;28;20165;-77
2023/10/25 09:58:34;;;;;;;1.17;1.00;;;;;;;13.35;100.00;98599.50;5046070;28;20278;-76
2023/10/25 10:01:00;;;;;;;1.27;1.10;;;;;;;13.35;100.00;98589.13;5034531;28;20241;-77
2023/10/25 10:03:38;;;;;;;4.10;1.70;;;;;;;13.30;100.00;98585.91;5037091;28;20313;-75
2023/10/25 10:06:27;;;;;;;1.77;1.10;;;;;;;13.33;100.00;98589.22;5042046;28;21005;-76
2023/10/25 10:09:02;;;;;;;3.07;2.60;;;;;;;13.32;100.00;98571.94;5041200;28;20202;-76
2023/10/25 10:11:35;;;;;;;1.40;1.30;;;;;;;13.29;100.00;98558.25;5038466;28;20209;-76
2023/10/25 10:14:26;;;;;;;2.40;1.43;;;;;;;13.30;100.00;98547.78;5040581;28;20203;-77
2023/10/25 10:16:52;;;;;;;1.47;1.37;;;;;;;13.25;100.00;98548.00;5039849;28;20557;-77
2023/10/25 10:19:21;;;;;;;2.73;1.40;;;;;;;13.32;100.00;98539.91;5040941;28;20210;-77
2023/10/25 10:22:10;;;;;;;3.20;2.63;;;;;;;13.37;100.00;98543.13;5041689;28;20592;-76
2023/10/25 10:24:42;;;;;;;6.10;5.50;;;;;;;13.37;100.00;98532.72;5028385;28;20223;-76
2023/10/25 10:27:09;;;;;;;4.50;4.20;;;;;;;13.45;100.00;98522.84;5039617;28;20176;-77
2023/10/25 10:29:34;;;;;;;2.70;2.50;;;;;;;13.44;100.00;98526.38;5039816;28;20583;-77
2023/10/25 10:32:02;;;;;;;4.40;4.00;;;;;;;13.49;100.00;98510.53;5034669;28;20194;-75
2023/10/25 10:34:49;;;;;;;2.33;1.30;;;;;;;13.18;100.00;98512.84;5039319;28;20192;-76
2023/10/25 10:37:21;;;;;;;3.00;1.20;;;;;;;13.13;100.00;98494.06;5037985;28;20177;-76
2023/10/25 10:39:56;;;;;;;1.97;1.00;;;;;;;13.01;100.00;98489.47;5042397;28;20188;-76
2023/10/25 10:42:25;;;;;;;1.53;1.43;;;;;;;12.97;100.00;98473.16;5041893;28;20240;-77
2023/10/25 10:44:51;;;;;;;3.07;1.40;;;;;;;13.15;100.00;98468.84;5042848;28;20192;-76
2023/10/25 10:47:21;;;;;;;1.20;1.07;;;;;;;13.31;100.00;98465.50;5042573;28;20195;-78
2023/10/25 10:49:56;;;;;;;1.60;0.87;;;;;;;13.33;100.00;98448.91;5038072;28;20264;-78
2023/10/25 10:52:22;;;;;;;5.70;5.30;;;;;;;13.57;100.00;98446.00;5042886;28;20209;-77
2023/10/25 10:54:47;;;;;;;2.33;2.13;;;;;;;13.66;100.00;98427.38;5043613;28;20671;-78
2023/10/25 10:57:14;;;;;;;1.40;1.30;;;;;;;13.75;100.00;98423.47;5043074;28;20268;-75
2023/10/25 10:59:46;;;;;;;1.57;1.10;;;;;;;13.87;100.00;98417.59;5035789;28;20196;-77
2023/10/25 11:02:13;;;;;;;1.40;0.90;;;;;;;13.84;100.00;98414.34;5040281;28;20178;-75
2023/10/25 11:04:42;;;;;;;1.73;1.63;;;;;;;13.93;100.00;98402.59;5042510;28;20736;-76
2023/10/25 11:07:07;;;;;;;2.87;2.20;;;;;;;14.00;100.00;98407.38;5039944;28;20269;-77
2023/10/25 11:09:33;;;;;;;1.40;1.30;;;;;;;14.01;100.00;98409.06;5039810;28;21199;-76
2023/10/25 11:12:07;;;;;;;2.77;0.90;;;;;;;14.10;100.00;98404.31;5039873;28;20606;-77
2023/10/25 11:14:43;;;;;;;1.30;1.20;;;;;;;14.11;100.00;98390.38;5040237;28;20207;-76
2023/10/25 11:17:08;;;;;;;1.87;1.10;;;;;;;13.95;100.00;98390.34;5039984;28;20533;-78
2023/10/25 11:19:34;;;;;;;2.17;1.30;;;;;;;13.96;100.00;98387.69;5040127;28;20206;-76
2023/10/25 11:22:00;;;;;;;3.37;1.07;;;;;;;13.80;100.00;98376.41;5038931;28;20233;-76
2023/10/25 11:24:25;;;;;;;1.70;1.03;;;;;;;13.78;100.00;98375.66;5041709;28;20190;-76
2023/10/25 11:26:52;;;;;;;1.73;1.13;;;;;;;13.77;100.00;98368.78;5039978;28;20823;-77
2023/10/25 11:29:17;;;;;;;1.20;1.10;;;;;;;13.87;100.00;98369.94;5037482;28;20218;-77